Addison, Alabama
Current Conditions -  °F | °C
As of 3:55 PM on Thursday 27 Nov 2014 (Local Time) from KCMD Reporting Station
Overcast Overcast  
Wind Chill:   Ceiling: 4000
Heat Index:   Visibility: 10mi
Dew Point: -2°   Wind: 6mph
Humidity: 62%   Direction: 340°NNW
Pressure: 30.41"   Gusts: NA
Location:  34.2°N, 87.18°W
Report Text: KCMD 272155Z AUTO 34005KT 10SM OVC040 04/M02 A3041 RMK AO2 T00431024
Loading
Personal Weather Stations






























Interactive Weather Map New forecast layout! Learn more

10-Day Weather Forecast

Advertisements
Track Severe Weather on mobile